Time;durP1;ratioP1;P1;durP2;ratioP2;P2;SDS_P1;SDS_P2;PMS_P1;PMS_P2;Temp;Humidity;BMP_temperature;BMP_pressure;BME280_temperature;BME280_humidity;BME280_pressure;Samples;Min_cycle;Max_cycle;Signal;HPM_P1;HPM_P2
2022/09/08 00:00:52;;;;;;;4.22;3.75;;;21.10;97.30;;;;;;5090835;28;20196;-86
2022/09/08 00:03:20;;;;;;;4.03;3.63;;;21.20;96.60;;;;;;5087636;28;20276;-86
2022/09/08 00:05:57;;;;;;;3.88;3.50;;;21.30;96.80;;;;;;5095872;28;20179;-87
2022/09/08 00:08:24;;;;;;;3.95;3.55;;;21.50;95.60;;;;;;5098931;28;20290;-86
2022/09/08 00:10:56;;;;;;;4.85;3.80;;;21.50;95.10;;;;;;5103001;28;20182;-86
2022/09/08 00:13:23;;;;;;;3.85;3.55;;;21.50;94.60;;;;;;5107059;28;20191;-86
2022/09/08 00:15:50;;;;;;;6.30;3.97;;;21.60;94.10;;;;;;5106337;28;20221;-87
2022/09/08 00:18:16;;;;;;;3.75;3.53;;;21.60;93.40;;;;;;5102477;28;20203;-87
2022/09/08 00:20:42;;;;;;;5.07;3.85;;;21.60;95.60;;;;;;5093665;28;20179;-86
2022/09/08 00:23:08;;;;;;;3.78;3.40;;;21.60;94.30;;;;;;5096388;28;20174;-87
2022/09/08 00:25:34;;;;;;;3.58;3.38;;;21.60;94.40;;;;;;5092859;28;20180;-86
2022/09/08 00:28:00;;;;;;;5.85;3.80;;;21.60;94.10;;;;;;5105723;28;20265;-87
2022/09/08 00:30:26;;;;;;;3.53;3.33;;;21.70;93.70;;;;;;5101760;28;20211;-87
2022/09/08 00:32:52;;;;;;;3.80;3.50;;;21.80;92.40;;;;;;5086636;28;20183;-87
2022/09/08 00:35:18;;;;;;;5.15;3.50;;;21.80;93.60;;;;;;5099309;28;20190;-87
2022/09/08 00:37:46;;;;;;;4.15;3.72;;;21.90;92.20;;;;;;5108152;28;20230;-87
2022/09/08 00:40:12;;;;;;;4.63;3.70;;;21.80;93.30;;;;;;5106544;28;20366;-86
2022/09/08 00:42:38;;;;;;;3.55;3.35;;;21.80;92.30;;;;;;5094214;28;20222;-87
2022/09/08 00:45:05;;;;;;;4.07;3.65;;;21.80;92.10;;;;;;5104486;28;20175;-87
2022/09/08 00:47:41;;;;;;;4.63;3.78;;;21.70;92.50;;;;;;5103319;28;20224;-87
2022/09/08 00:50:12;;;;;;;4.38;3.97;;;21.80;93.00;;;;;;5104959;28;20202;-87
2022/09/08 00:53:04;;;;;;;4.05;3.65;;;21.70;92.80;;;;;;5111406;28;20179;-86
2022/09/08 00:55:34;;;;;;;4.05;3.75;;;21.70;93.00;;;;;;5119405;28;20178;-87
2022/09/08 00:58:00;;;;;;;3.95;3.65;;;21.70;93.20;;;;;;5095451;28;20222;-87
2022/09/08 01:00:25;;;;;;;3.90;3.60;;;21.70;93.60;;;;;;5099790;28;20206;-86
2022/09/08 01:02:52;;;;;;;4.20;3.85;;;21.70;93.20;;;;;;5102792;28;20203;-86
2022/09/08 01:05:21;;;;;;;4.10;3.78;;;21.60;94.60;;;;;;5103132;28;20556;-87
2022/09/08 01:14:16;;;;;;;4.10;3.80;;;21.00;96.50;;;;;;5083367;28;20217;-87
2022/09/08 01:16:45;;;;;;;4.32;4.00;;;21.00;97.00;;;;;;5100170;28;20698;-87
2022/09/08 01:19:25;;;;;;;4.57;3.58;;;21.10;97.10;;;;;;5099583;28;20226;-87
2022/09/08 01:22:06;;;;;;;6.10;3.95;;;21.10;95.70;;;;;;5101185;28;20159;-86
2022/09/08 01:25:05;;;;;;;4.47;3.90;;;21.10;95.50;;;;;;5101760;28;20204;-86
2022/09/08 01:27:31;;;;;;;4.45;3.90;;;20.90;97.20;;;;;;5100769;28;20533;-87
2022/09/08 01:30:04;;;;;;;5.03;4.13;;;20.80;97.00;;;;;;5100552;28;20258;-87
2022/09/08 01:32:35;;;;;;;5.38;4.05;;;20.80;96.90;;;;;;5086517;28;20561;-86
2022/09/08 01:35:02;;;;;;;4.90;3.80;;;20.70;96.50;;;;;;5079502;28;20199;-86
2022/09/08 01:37:28;;;;;;;3.90;3.60;;;20.60;97.30;;;;;;5088684;28;20205;-88
2022/09/08 01:39:53;;;;;;;4.10;3.80;;;20.70;98.50;;;;;;5099955;28;20209;-87
2022/09/08 01:42:19;;;;;;;4.05;3.70;;;20.70;97.50;;;;;;5079750;28;20203;-86
2022/09/08 01:44:45;;;;;;;4.20;3.90;;;20.80;97.20;;;;;;5087370;28;20649;-88
2022/09/08 01:47:11;;;;;;;5.13;3.85;;;20.80;96.70;;;;;;5105504;28;20234;-87
2022/09/08 01:49:37;;;;;;;5.82;4.20;;;20.70;96.70;;;;;;5089705;28;20207;-87
2022/09/08 01:52:04;;;;;;;5.45;4.10;;;20.70;97.10;;;;;;5086398;28;20191;-86
2022/09/08 01:54:30;;;;;;;4.32;3.97;;;20.80;96.90;;;;;;5093300;28;20195;-87
2022/09/08 01:56:56;;;;;;;4.25;3.72;;;20.90;96.30;;;;;;5087520;28;20645;-87
2022/09/08 01:59:22;;;;;;;4.55;3.72;;;21.00;96.40;;;;;;5105475;28;20266;-87
2022/09/08 02:01:48;;;;;;;4.13;3.75;;;20.90;96.60;;;;;;5104018;28;20803;-87
2022/09/08 02:04:15;;;;;;;4.75;4.18;;;21.10;95.90;;;;;;5088945;28;20869;-87
2022/09/08 02:06:41;;;;;;;4.70;4.38;;;21.10;96.50;;;;;;5104160;28;20202;-87
2022/09/08 02:09:07;;;;;;;4.55;4.15;;;21.10;96.60;;;;;;5088856;28;20226;-87
2022/09/08 02:11:32;;;;;;;4.10;3.80;;;20.80;95.90;;;;;;5105564;28;20238;-87
2022/09/08 02:13:58;;;;;;;4.35;4.03;;;20.80;96.50;;;;;;5105363;28;20179;-87
2022/09/08 02:16:24;;;;;;;4.35;4.05;;;20.70;98.30;;;;;;5105621;28;20174;-88
2022/09/08 02:18:53;;;;;;;4.07;3.78;;;20.50;98.60;;;;;;5098984;28;20226;-86
2022/09/08 02:21:19;;;;;;;4.40;4.03;;;20.70;98.00;;;;;;5085325;28;20258;-86
2022/09/08 02:23:48;;;;;;;4.22;3.92;;;20.60;98.60;;;;;;5093581;28;20179;-86
2022/09/08 02:26:28;;;;;;;4.88;4.30;;;20.60;98.30;;;;;;5104583;28;20179;-86
2022/09/08 02:28:54;;;;;;;4.55;4.15;;;20.40;99.30;;;;;;5098089;28;20203;-86
2022/09/08 02:31:22;;;;;;;5.13;4.20;;;20.30;99.50;;;;;;5080333;28;20286;-87
2022/09/08 02:33:47;;;;;;;4.30;3.95;;;20.30;98.90;;;;;;5102353;28;20205;-87
2022/09/08 02:36:14;;;;;;;4.40;4.07;;;20.40;99.50;;;;;;5105439;28;20246;-86
2022/09/08 02:38:39;;;;;;;4.20;3.90;;;20.60;97.90;;;;;;5103222;28;20207;-87
2022/09/08 02:41:07;;;;;;;4.38;3.85;;;20.70;98.50;;;;;;5086202;28;20191;-86
2022/09/08 02:43:34;;;;;;;4.97;3.90;;;20.90;97.50;;;;;;5104653;28;20530;-86
2022/09/08 02:46:04;;;;;;;3.85;3.60;;;21.00;96.80;;;;;;5095065;28;20187;-86
2022/09/08 02:48:30;;;;;;;4.38;3.85;;;21.10;96.10;;;;;;5085267;28;20234;-88
2022/09/08 02:50:59;;;;;;;4.38;3.97;;;21.10;96.40;;;;;;5094173;28;20190;-88
2022/09/08 02:53:25;;;;;;;4.45;4.10;;;21.00;97.00;;;;;;5096023;28;20217;-87
2022/09/08 02:55:51;;;;;;;4.97;4.05;;;21.00;97.20;;;;;;5100911;28;20206;-86
2022/09/08 02:58:17;;;;;;;4.68;4.38;;;21.00;98.10;;;;;;5088379;28;20207;-86
2022/09/08 03:00:42;;;;;;;4.75;4.32;;;20.90;97.50;;;;;;5104718;28;20175;-87
2022/09/08 03:03:08;;;;;;;4.43;4.03;;;20.80;98.80;;;;;;5103890;28;20554;-86
2022/09/08 03:05:34;;;;;;;4.78;4.47;;;20.70;98.90;;;;;;5102581;28;20183;-86
2022/09/08 03:08:03;;;;;;;5.22;4.40;;;20.60;99.90;;;;;;5084570;28;20184;-86
2022/09/08 03:10:29;;;;;;;5.95;5.35;;;20.50;99.90;;;;;;5066481;28;20223;-87
2022/09/08 03:12:57;;;;;;;6.57;6.07;;;20.10;99.90;;;;;;5104909;28;20651;-86
2022/09/08 03:15:24;;;;;;;5.80;5.30;;;20.00;99.90;;;;;;5103509;28;20206;-88
2022/09/08 03:17:50;;;;;;;6.20;5.60;;;19.70;99.90;;;;;;5103745;28;20691;-85
2022/09/08 03:20:16;;;;;;;5.78;5.20;;;19.60;99.90;;;;;;5105225;28;20599;-85
2022/09/08 03:22:42;;;;;;;7.18;5.60;;;19.60;99.90;;;;;;5099984;28;20192;-86
2022/09/08 03:25:09;;;;;;;6.18;5.68;;;19.50;99.90;;;;;;5102104;28;20191;-86
2022/09/08 03:27:35;;;;;;;8.27;5.40;;;19.20;99.90;;;;;;5095991;28;20183;-85
2022/09/08 03:30:06;;;;;;;6.30;5.70;;;19.20;99.90;;;;;;5104281;28;20203;-87
2022/09/08 03:32:34;;;;;;;5.90;5.40;;;19.20;99.90;;;;;;5104353;28;20195;-85
2022/09/08 03:35:00;;;;;;;5.88;5.28;;;19.20;99.90;;;;;;5095970;28;20210;-87
2022/09/08 03:37:27;;;;;;;6.70;5.07;;;19.30;99.90;;;;;;5095565;28;20189;-85
2022/09/08 03:39:53;;;;;;;4.80;4.50;;;19.20;99.90;;;;;;5103437;28;20229;-85
2022/09/08 03:42:19;;;;;;;5.45;5.00;;;19.00;99.90;;;;;;5112401;28;20210;-88
2022/09/08 03:44:45;;;;;;;5.55;4.30;;;19.00;99.90;;;;;;5120830;28;20175;-87
2022/09/08 03:47:11;;;;;;;4.78;4.28;;;18.90;99.90;;;;;;5110842;28;20228;-86
2022/09/08 03:49:36;;;;;;;6.90;3.00;;;18.90;99.90;;;;;;5108775;28;20199;-88
2022/09/08 03:52:03;;;;;;;5.27;2.80;;;18.70;99.90;;;;;;5095093;28;20168;-86
2022/09/08 03:54:49;;;;;;;3.22;2.67;;;18.70;99.90;;;;;;5108854;28;20200;-85
2022/09/08 03:57:17;;;;;;;3.03;2.67;;;18.60;99.90;;;;;;5108590;28;20186;-86
2022/09/08 03:59:43;;;;;;;3.33;2.67;;;18.60;99.90;;;;;;5108120;28;20234;-86
2022/09/08 04:02:09;;;;;;;2.40;2.30;;;18.50;99.90;;;;;;5109206;28;20178;-86
2022/09/08 04:04:35;;;;;;;3.00;2.70;;;18.50;99.90;;;;;;5107585;28;20189;-87
2022/09/08 04:07:01;;;;;;;2.70;2.50;;;18.40;99.90;;;;;;5108872;28;20232;-86
2022/09/08 04:09:27;;;;;;;2.80;2.60;;;18.40;99.90;;;;;;5104182;28;20719;-86
2022/09/08 04:11:53;;;;;;;2.90;2.40;;;18.40;99.90;;;;;;5092511;28;20173;-88
2022/09/08 04:14:19;;;;;;;2.60;2.37;;;18.30;99.90;;;;;;5107004;28;20789;-86
2022/09/08 04:16:44;;;;;;;2.30;2.20;;;18.20;99.90;;;;;;5106739;28;20209;-84
2022/09/08 04:19:12;;;;;;;2.53;2.33;;;18.10;99.90;;;;;;5103633;28;20222;-86
2022/09/08 04:21:38;;;;;;;2.35;2.25;;;18.10;99.90;;;;;;5088071;28;20194;-86
2022/09/08 04:24:04;;;;;;;3.27;2.70;;;18.00;99.90;;;;;;5093371;28;20200;-85
2022/09/08 04:26:29;;;;;;;3.73;2.60;;;17.90;99.90;;;;;;5093643;28;20258;-86
2022/09/08 04:28:56;;;;;;;3.37;2.47;;;17.80;99.90;;;;;;5096372;28;20220;-85
2022/09/08 04:31:22;;;;;;;3.87;2.77;;;17.90;99.90;;;;;;5104773;28;20192;-86
2022/09/08 04:33:48;;;;;;;2.70;2.50;;;17.80;99.90;;;;;;5101809;28;20250;-86
2022/09/08 04:36:20;;;;;;;2.90;2.60;;;17.70;99.90;;;;;;5101291;28;20419;-85
2022/09/08 04:38:46;;;;;;;3.43;2.60;;;17.70;99.90;;;;;;5105404;28;20222;-86
2022/09/08 04:41:15;;;;;;;2.73;2.50;;;17.60;99.90;;;;;;5105541;28;20645;-86
2022/09/08 04:43:41;;;;;;;4.67;2.43;;;17.60;99.90;;;;;;5070420;28;20187;-85
2022/09/08 04:46:10;;;;;;;4.57;2.40;;;17.60;99.90;;;;;;5108634;28;20177;-85
2022/09/08 04:48:37;;;;;;;3.13;2.50;;;17.50;99.90;;;;;;5090289;28;20258;-86
2022/09/08 04:51:04;;;;;;;3.40;2.53;;;17.50;99.90;;;;;;5089663;28;20251;-84
2022/09/08 04:53:32;;;;;;;3.13;2.30;;;17.30;99.90;;;;;;5095830;28;20187;-85
2022/09/08 04:55:58;;;;;;;3.03;2.40;;;17.40;99.90;;;;;;5091874;28;20184;-86
2022/09/08 04:58:24;;;;;;;2.47;2.23;;;17.30;99.90;;;;;;5108881;28;20215;-87
2022/09/08 05:00:50;;;;;;;2.33;1.93;;;17.20;99.90;;;;;;5108471;28;20185;-87
2022/09/08 05:03:16;;;;;;;2.03;1.90;;;17.10;99.90;;;;;;5091410;28;20280;-85
2022/09/08 05:05:42;;;;;;;2.23;2.00;;;17.10;99.90;;;;;;5090947;28;20190;-86
2022/09/08 05:08:08;;;;;;;2.13;2.00;;;17.00;99.90;;;;;;5108560;28;20189;-87
2022/09/08 05:10:34;;;;;;;1.80;1.70;;;17.00;99.90;;;;;;5107933;28;20278;-85
2022/09/08 05:13:00;;;;;;;1.87;1.77;;;17.00;99.90;;;;;;5097851;28;20201;-85
2022/09/08 05:15:27;;;;;;;1.80;1.70;;;17.00;99.90;;;;;;5097432;28;20195;-85
2022/09/08 05:17:54;;;;;;;2.23;2.00;;;17.00;99.90;;;;;;5106197;28;20218;-86
2022/09/08 05:20:20;;;;;;;2.10;2.00;;;17.10;99.90;;;;;;5107358;28;20210;-86
2022/09/08 05:22:47;;;;;;;1.80;1.70;;;17.10;99.90;;;;;;5086174;28;20883;-87
2022/09/08 05:25:13;;;;;;;2.03;1.83;;;17.30;99.90;;;;;;5106295;28;20203;-87
2022/09/08 05:27:38;;;;;;;2.00;1.90;;;17.30;99.90;;;;;;5110438;28;20202;-87
2022/09/08 05:30:05;;;;;;;1.97;1.83;;;17.30;99.90;;;;;;5102668;28;20273;-85
2022/09/08 05:32:31;;;;;;;2.03;1.90;;;17.30;99.90;;;;;;5110043;28;20177;-87
2022/09/08 05:34:56;;;;;;;3.53;2.03;;;17.30;99.90;;;;;;5097607;28;20202;-85
2022/09/08 05:37:27;;;;;;;2.80;2.00;;;17.20;99.90;;;;;;5100799;28;20193;-85
2022/09/08 05:39:54;;;;;;;3.13;2.00;;;17.20;99.90;;;;;;5106264;28;20217;-86
2022/09/08 05:42:20;;;;;;;3.33;1.97;;;17.10;99.90;;;;;;5097598;28;20192;-85
2022/09/08 05:44:46;;;;;;;4.33;2.07;;;17.20;99.90;;;;;;5092645;28;20267;-85
2022/09/08 05:47:12;;;;;;;2.10;1.83;;;17.20;99.90;;;;;;5098867;28;20185;-86
2022/09/08 05:49:37;;;;;;;2.00;1.90;;;17.30;99.90;;;;;;5074499;28;20216;-85
2022/09/08 05:52:03;;;;;;;1.97;1.87;;;17.30;99.90;;;;;;5107323;28;20197;-87
2022/09/08 05:54:29;;;;;;;1.98;1.80;;;17.40;99.90;;;;;;5108739;28;20542;-85
2022/09/08 05:56:56;;;;;;;2.13;1.92;;;17.50;99.90;;;;;;5094053;28;20221;-85
2022/09/08 05:59:22;;;;;;;1.92;1.83;;;17.70;99.90;;;;;;5107073;28;20222;-85
2022/09/08 06:01:48;;;;;;;2.10;1.90;;;17.70;99.90;;;;;;5105107;28;20190;-86
2022/09/08 06:04:15;;;;;;;2.00;1.90;;;17.70;99.90;;;;;;5090014;28;20232;-86
2022/09/08 06:06:40;;;;;;;4.30;2.38;;;17.80;99.90;;;;;;5092982;28;20254;-86
2022/09/08 06:09:07;;;;;;;2.05;1.90;;;17.80;99.90;;;;;;5094844;28;20219;-87
2022/09/08 06:11:34;;;;;;;2.13;2.03;;;18.00;99.90;;;;;;5095619;28;20194;-86
2022/09/08 06:14:01;;;;;;;2.20;2.00;;;18.20;99.90;;;;;;5094822;28;20198;-85
2022/09/08 06:16:27;;;;;;;2.33;2.10;;;18.20;99.90;;;;;;5095756;28;20195;-86
2022/09/08 06:18:53;;;;;;;2.20;2.10;;;18.30;99.90;;;;;;5092676;28;20287;-86
2022/09/08 06:21:25;;;;;;;2.50;2.00;;;18.30;99.90;;;;;;5095550;28;20182;-87
2022/09/08 06:23:53;;;;;;;3.22;2.08;;;18.30;99.60;;;;;;5097316;28;20573;-86
2022/09/08 06:26:41;;;;;;;1.85;1.75;;;18.20;99.90;;;;;;5098386;28;20183;-86
2022/09/08 06:29:17;;;;;;;2.50;2.30;;;18.10;99.90;;;;;;5092443;28;20266;-86
2022/09/08 06:32:03;;;;;;;2.72;2.10;;;18.00;99.90;;;;;;5104419;28;20192;-84
2022/09/08 06:34:41;;;;;;;2.05;1.92;;;18.10;99.90;;;;;;5106882;28;20174;-86
2022/09/08 06:37:15;;;;;;;2.35;1.90;;;18.00;99.90;;;;;;5096345;28;20194;-86
2022/09/08 06:39:48;;;;;;;1.88;1.77;;;17.90;99.90;;;;;;5095824;28;20206;-85
2022/09/08 06:42:20;;;;;;;2.10;2.00;;;17.90;99.90;;;;;;5097024;28;20182;-86
2022/09/08 06:44:51;;;;;;;2.47;1.70;;;17.80;99.90;;;;;;5096945;28;20173;-86
2022/09/08 06:47:21;;;;;;;1.80;1.70;;;17.70;99.90;;;;;;5093896;28;20235;-85
2022/09/08 06:49:50;;;;;;;4.10;2.17;;;17.70;99.90;;;;;;5095099;28;20213;-85
2022/09/08 06:52:36;;;;;;;2.20;2.00;;;17.70;99.90;;;;;;5093459;28;20190;-88
2022/09/08 06:55:18;;;;;;;2.67;1.92;;;17.80;99.90;;;;;;5092755;28;20278;-89
2022/09/08 06:58:01;;;;;;;1.97;1.87;;;17.80;99.90;;;;;;5091003;28;20227;-82
2022/09/08 07:00:33;;;;;;;3.50;1.80;;;17.90;99.80;;;;;;5101129;28;20200;-87
2022/09/08 07:03:17;;;;;;;2.20;1.93;;;17.90;99.90;;;;;;5096805;28;20291;-87
2022/09/08 07:06:01;;;;;;;2.03;1.80;;;17.90;99.90;;;;;;5095070;28;20199;-86
2022/09/08 07:09:02;;;;;;;3.13;2.05;;;17.70;99.90;;;;;;5125426;28;20281;-86
2022/09/08 07:11:31;;;;;;;1.98;1.85;;;17.70;99.90;;;;;;5099474;28;20204;-86
2022/09/08 07:14:13;;;;;;;2.17;2.00;;;17.80;99.90;;;;;;5099935;28;20185;-85
2022/09/08 07:17:02;;;;;;;2.35;2.15;;;17.80;99.90;;;;;;5101182;28;20253;-85
2022/09/08 07:19:47;;;;;;;1.90;1.80;;;17.70;99.90;;;;;;5098797;28;20221;-85
2022/09/08 07:22:31;;;;;;;1.95;1.85;;;17.80;99.90;;;;;;5097929;28;20187;-86
2022/09/08 07:25:15;;;;;;;2.10;2.00;;;17.90;99.90;;;;;;5101325;28;20583;-85
2022/09/08 07:27:42;;;;;;;3.10;1.97;;;17.90;99.90;;;;;;5097561;28;20244;-86
2022/09/08 07:30:14;;;;;;;1.90;1.80;;;17.90;99.90;;;;;;5100501;28;20209;-86
2022/09/08 07:32:41;;;;;;;3.28;2.15;;;17.90;99.90;;;;;;5100205;28;20198;-86
2022/09/08 07:35:16;;;;;;;2.00;1.80;;;17.80;99.90;;;;;;5104047;28;20529;-90
2022/09/08 07:37:47;;;;;;;2.20;2.00;;;17.90;99.90;;;;;;5099138;28;20187;-86
2022/09/08 07:40:20;;;;;;;4.87;2.03;;;17.80;99.90;;;;;;5108322;28;20254;-85
2022/09/08 07:42:55;;;;;;;2.80;1.80;;;17.70;99.90;;;;;;5113293;28;20502;-86
2022/09/08 07:45:30;;;;;;;2.50;1.80;;;17.80;99.90;;;;;;5113016;28;20185;-86
2022/09/08 07:48:26;;;;;;;2.73;1.80;;;17.80;99.70;;;;;;5108058;28;20194;-85
2022/09/08 07:51:11;;;;;;;2.07;1.97;;;17.90;99.90;;;;;;5106705;28;20211;-85
2022/09/08 07:54:01;;;;;;;2.20;2.00;;;17.90;97.50;;;;;;5105982;28;20217;-85
2022/09/08 07:56:43;;;;;;;3.10;2.00;;;18.00;98.00;;;;;;5102656;28;20197;-86
2022/09/08 07:59:24;;;;;;;2.25;2.15;;;17.90;99.00;;;;;;5102753;28;20218;-86
2022/09/08 08:02:17;;;;;;;2.35;2.25;;;18.00;98.40;;;;;;5101632;28;20221;-87
2022/09/08 08:05:21;;;;;;;3.47;2.07;;;18.00;98.50;;;;;;5100531;28;20182;-86
2022/09/08 08:07:46;;;;;;;2.00;1.90;;;18.10;99.10;;;;;;5104893;28;20180;-87
2022/09/08 08:10:15;;;;;;;3.72;2.10;;;18.20;97.90;;;;;;5102213;28;20228;-85
2022/09/08 08:13:30;;;;;;;2.13;1.92;;;18.20;98.20;;;;;;5097826;28;20212;-86
2022/09/08 08:16:02;;;;;;;2.10;1.92;;;18.20;98.60;;;;;;5087227;28;20211;-86
2022/09/08 08:18:47;;;;;;;1.90;1.80;;;18.30;96.40;;;;;;5098682;28;20221;-86
2022/09/08 08:21:18;;;;;;;2.50;1.75;;;18.40;96.90;;;;;;5100311;28;20208;-86
2022/09/08 08:24:11;;;;;;;2.13;2.00;;;18.40;97.70;;;;;;5101103;28;20194;-86
2022/09/08 08:27:23;;;;;;;2.15;2.05;;;18.20;97.80;;;;;;5104089;28;20192;-86
2022/09/08 08:30:03;;;;;;;2.03;1.90;;;18.30;96.90;;;;;;5037882;28;20221;-85
2022/09/08 08:32:37;;;;;;;1.90;1.77;;;18.40;96.90;;;;;;5101298;28;20206;-86
2022/09/08 08:35:21;;;;;;;2.40;1.95;;;18.40;95.60;;;;;;5103445;28;20232;-86
2022/09/08 08:37:49;;;;;;;2.03;1.92;;;18.60;96.30;;;;;;5098476;28;20222;-84
2022/09/08 08:40:53;;;;;;;3.00;2.00;;;18.70;94.90;;;;;;5101498;28;20228;-85
2022/09/08 08:43:24;;;;;;;2.75;2.05;;;18.80;95.40;;;;;;5101285;28;20820;-85
2022/09/08 08:46:11;;;;;;;1.80;1.70;;;18.70;96.00;;;;;;5102883;28;20181;-85
2022/09/08 08:48:58;;;;;;;2.22;1.70;;;18.80;94.20;;;;;;5104719;28;20229;-88
2022/09/08 08:51:42;;;;;;;2.03;1.80;;;18.90;93.40;;;;;;5098987;28;20260;-85
2022/09/08 08:54:42;;;;;;;2.15;1.98;;;19.10;92.20;;;;;;5099676;28;20183;-85
2022/09/08 08:57:35;;;;;;;2.22;2.08;;;19.40;92.00;;;;;;5103868;28;20255;-88
2022/09/08 09:00:14;;;;;;;1.83;1.73;;;19.50;91.50;;;;;;5096859;28;20209;-85
2022/09/08 09:02:57;;;;;;;2.60;1.90;;;19.40;90.60;;;;;;5102061;28;20225;-85
2022/09/08 09:05:42;;;;;;;2.10;2.00;;;19.80;91.10;;;;;;5106701;28;20175;-86
2022/09/08 09:08:36;;;;;;;1.80;1.70;;;20.10;87.20;;;;;;5105315;28;20167;-86
2022/09/08 09:11:21;;;;;;;2.72;2.10;;;20.00;86.50;;;;;;5101861;28;20180;-86
2022/09/08 09:13:55;;;;;;;1.90;1.80;;;20.10;87.60;;;;;;5101383;28;20206;-85
2022/09/08 09:16:40;;;;;;;2.47;1.92;;;20.30;83.80;;;;;;5107218;28;20187;-85
2022/09/08 09:19:18;;;;;;;1.98;1.88;;;20.70;79.60;;;;;;5106663;28;20214;-87
2022/09/08 09:21:58;;;;;;;1.90;1.80;;;20.70;83.40;;;;;;5105725;28;20251;-86
2022/09/08 09:24:53;;;;;;;2.60;2.00;;;20.80;80.40;;;;;;5112345;28;20186;-86
2022/09/08 09:27:56;;;;;;;1.80;1.70;;;20.70;78.10;;;;;;5102511;28;20724;-86
2022/09/08 09:30:28;;;;;;;3.95;1.85;;;20.60;77.60;;;;;;5105632;28;20206;-85
2022/09/08 09:33:05;;;;;;;1.77;1.67;;;20.30;80.40;;;;;;5109139;28;20221;-85
2022/09/08 09:35:48;;;;;;;1.95;1.85;;;20.30;78.90;;;;;;5096925;28;20199;-87
2022/09/08 09:38:22;;;;;;;2.00;1.90;;;20.40;80.70;;;;;;5098247;28;20196;-85
2022/09/08 09:41:09;;;;;;;1.90;1.80;;;20.90;79.50;;;;;;5106057;28;20174;-86
2022/09/08 09:43:59;;;;;;;1.63;1.60;;;21.10;76.20;;;;;;5098853;28;20213;-86
2022/09/08 09:46:34;;;;;;;2.08;1.95;;;21.00;74.40;;;;;;5106675;28;20179;-85
2022/09/08 09:49:37;;;;;;;1.92;1.83;;;20.80;75.70;;;;;;5101654;28;20257;-85
2022/09/08 09:52:15;;;;;;;2.35;2.03;;;20.70;78.10;;;;;;5100368;28;20501;-86
2022/09/08 09:54:56;;;;;;;1.85;1.75;;;20.70;78.00;;;;;;5106852;28;20187;-85
2022/09/08 09:57:42;;;;;;;2.10;2.00;;;20.50;80.10;;;;;;5101667;28;20235;-86
2022/09/08 10:00:14;;;;;;;1.95;1.85;;;20.70;77.20;;;;;;5102887;28;20205;-85
2022/09/08 10:03:05;;;;;;;1.80;1.70;;;20.70;79.00;;;;;;5098888;28;20164;-87
2022/09/08 10:05:59;;;;;;;2.03;1.90;;;20.80;79.80;;;;;;5099526;28;20830;-85
2022/09/08 10:08:59;;;;;;;1.98;1.75;;;20.80;79.00;;;;;;5101931;28;20254;-85
2022/09/08 10:11:51;;;;;;;2.95;1.83;;;20.80;77.50;;;;;;5101688;28;20683;-85
2022/09/08 10:14:28;;;;;;;1.90;1.80;;;20.90;78.10;;;;;;5098634;28;20181;-85
2022/09/08 10:17:24;;;;;;;2.17;2.00;;;21.00;75.90;;;;;;5101567;28;20194;-85
2022/09/08 10:20:26;;;;;;;3.78;2.20;;;21.30;78.20;;;;;;5102683;28;20677;-86
2022/09/08 10:23:30;;;;;;;2.30;2.10;;;21.80;71.20;;;;;;5101681;28;20205;-86
2022/09/08 10:26:29;;;;;;;2.20;2.00;;;22.10;73.20;;;;;;5092727;28;20608;-88
2022/09/08 10:29:42;;;;;;;2.20;2.00;;;22.30;69.20;;;;;;5100937;28;20222;-85
2022/09/08 10:32:43;;;;;;;3.10;2.22;;;21.90;67.60;;;;;;5101992;28;20275;-86
2022/09/08 10:35:47;;;;;;;3.35;2.03;;;21.40;72.20;;;;;;5094781;28;20170;-85
2022/09/08 10:38:35;;;;;;;2.28;2.03;;;21.50;72.40;;;;;;5094534;28;20213;-83
2022/09/08 10:41:37;;;;;;;3.65;2.22;;;21.40;73.90;;;;;;5094510;28;20205;-85
2022/09/08 10:44:26;;;;;;;4.55;2.22;;;21.60;72.70;;;;;;5061881;28;20190;-84
2022/09/08 10:47:04;;;;;;;2.25;2.10;;;21.80;69.80;;;;;;5098483;28;20183;-85
2022/09/08 10:50:01;;;;;;;2.45;2.25;;;22.00;70.30;;;;;;5100727;28;20207;-85
2022/09/08 10:52:32;;;;;;;2.40;2.20;;;21.90;67.30;;;;;;5102256;28;20236;-81
2022/09/08 10:55:16;;;;;;;2.53;2.33;;;21.90;70.00;;;;;;5099390;28;20194;-85
2022/09/08 10:58:00;;;;;;;2.53;2.15;;;22.60;70.70;;;;;;5096239;28;20187;-83
2022/09/08 11:00:38;;;;;;;2.67;2.28;;;23.10;68.20;;;;;;5101079;28;20273;-85
2022/09/08 11:03:43;;;;;;;2.90;2.30;;;23.00;66.30;;;;;;5100573;28;20178;-84
2022/09/08 11:06:51;;;;;;;2.42;2.10;;;23.10;63.80;;;;;;5090328;28;20378;-85
2022/09/08 11:09:35;;;;;;;4.15;2.20;;;23.20;63.50;;;;;;5025925;28;20232;-84
2022/09/08 11:12:32;;;;;;;4.70;2.20;;;23.40;60.90;;;;;;5094241;28;20187;-84
2022/09/08 11:15:17;;;;;;;2.72;2.50;;;23.30;60.00;;;;;;5103391;28;20186;-85
2022/09/08 11:17:49;;;;;;;2.40;2.17;;;23.50;59.50;;;;;;5105726;28;20198;-85
2022/09/08 11:20:39;;;;;;;3.33;2.15;;;23.50;59.30;;;;;;5108775;28;20199;-84
2022/09/08 11:23:20;;;;;;;7.13;2.53;;;23.00;58.90;;;;;;5101193;28;20182;-86
2022/09/08 11:26:09;;;;;;;5.45;2.40;;;22.80;61.70;;;;;;5106039;28;20182;-84
2022/09/08 11:29:15;;;;;;;2.60;2.22;;;23.30;58.50;;;;;;5107311;28;20190;-86
2022/09/08 11:32:20;;;;;;;3.70;2.08;;;23.90;59.00;;;;;;5041644;28;20192;-84
2022/09/08 11:35:18;;;;;;;2.35;2.15;;;24.50;56.20;;;;;;5038039;28;20185;-86
2022/09/08 11:38:23;;;;;;;4.35;2.40;;;24.40;58.00;;;;;;5102481;28;20199;-84
2022/09/08 11:41:18;;;;;;;2.58;2.28;;;23.40;58.50;;;;;;5099795;28;20181;-86
2022/09/08 11:44:07;;;;;;;8.43;2.55;;;23.50;57.80;;;;;;5101012;28;20179;-86
2022/09/08 11:46:53;;;;;;;5.18;2.45;;;23.20;57.60;;;;;;5104512;28;20187;-85
2022/09/08 11:49:25;;;;;;;2.85;2.40;;;23.00;59.30;;;;;;5109983;28;20205;-85
2022/09/08 11:52:01;;;;;;;2.67;2.10;;;23.00;58.10;;;;;;5110298;28;20174;-87
2022/09/08 11:54:33;;;;;;;6.57;2.58;;;22.90;59.00;;;;;;5108887;28;20183;-85
2022/09/08 11:57:23;;;;;;;2.63;2.25;;;22.90;59.00;;;;;;5101694;28;20206;-86
2022/09/08 12:00:18;;;;;;;3.75;2.50;;;22.80;59.60;;;;;;5100496;28;20206;-85
2022/09/08 12:03:09;;;;;;;3.22;2.30;;;22.80;58.90;;;;;;5104013;28;20586;-86
2022/09/08 12:06:01;;;;;;;5.40;2.72;;;22.90;60.60;;;;;;5099463;28;20207;-85
2022/09/08 12:08:57;;;;;;;2.40;2.20;;;23.10;60.30;;;;;;5086158;28;20175;-86
2022/09/08 12:11:51;;;;;;;2.75;2.38;;;23.00;58.10;;;;;;5107860;28;20668;-87
2022/09/08 12:14:16;;;;;;;2.90;2.50;;;23.30;58.30;;;;;;5101921;28;20187;-85
2022/09/08 12:17:06;;;;;;;6.15;2.28;;;23.00;58.30;;;;;;5101282;28;20168;-86
2022/09/08 12:19:51;;;;;;;3.50;2.33;;;23.00;57.80;;;;;;5102713;28;20219;-86
2022/09/08 12:22:41;;;;;;;4.40;2.72;;;22.90;57.70;;;;;;5103583;28;20634;-85
2022/09/08 12:25:15;;;;;;;4.55;2.45;;;22.60;63.90;;;;;;5097948;28;20174;-86
2022/09/08 12:27:49;;;;;;;7.25;2.95;;;22.20;67.00;;;;;;5101165;28;20227;-86
2022/09/08 12:30:21;;;;;;;3.47;2.78;;;22.00;76.60;;;;;;5103858;28;20199;-86
2022/09/08 12:33:31;;;;;;;5.20;2.63;;;21.90;79.80;;;;;;5099471;28;20203;-86
2022/09/08 12:36:07;;;;;;;4.68;2.42;;;21.80;82.10;;;;;;5104080;28;20731;-86
2022/09/08 12:39:02;;;;;;;3.20;2.40;;;21.60;85.60;;;;;;5098887;28;20223;-86
2022/09/08 12:41:46;;;;;;;4.28;2.40;;;21.60;84.50;;;;;;5097936;28;20277;-86
2022/09/08 12:44:22;;;;;;;2.97;2.13;;;21.60;84.80;;;;;;5100044;28;20244;-86
2022/09/08 12:47:03;;;;;;;3.90;2.33;;;21.60;86.30;;;;;;5099848;28;20182;-87
2022/09/08 12:49:45;;;;;;;4.28;2.40;;;21.90;86.40;;;;;;5097912;28;20194;-87
2022/09/08 12:52:46;;;;;;;7.22;2.55;;;22.00;85.50;;;;;;5098395;28;20182;-86
2022/09/08 12:55:30;;;;;;;3.58;2.53;;;22.80;84.80;;;;;;5097640;28;20178;-88
2022/09/08 12:58:01;;;;;;;2.85;2.50;;;23.70;78.20;;;;;;5095149;28;20827;-86
2022/09/08 13:01:22;;;;;;;4.38;2.67;;;24.40;69.90;;;;;;5098763;28;20743;-86
2022/09/08 13:03:47;;;;;;;4.78;2.40;;;25.00;68.60;;;;;;5068671;28;20205;-86
2022/09/08 13:06:31;;;;;;;3.58;2.45;;;25.30;65.30;;;;;;5098217;28;20187;-86
2022/09/08 13:09:25;;;;;;;2.95;2.30;;;25.90;64.90;;;;;;5090838;28;20215;-86
2022/09/08 13:12:29;;;;;;;3.08;2.60;;;26.20;68.80;;;;;;5095812;28;20195;-86
2022/09/08 13:15:25;;;;;;;2.65;2.45;;;26.90;59.60;;;;;;5099972;28;20185;-86
2022/09/08 13:18:03;;;;;;;2.70;2.45;;;26.50;60.70;;;;;;5090823;28;20208;-86
2022/09/08 13:20:52;;;;;;;4.15;2.50;;;26.30;62.50;;;;;;5096395;28;20236;-85
2022/09/08 13:23:39;;;;;;;4.32;2.40;;;26.00;60.50;;;;;;5095626;28;20275;-86
2022/09/08 13:26:19;;;;;;;2.63;2.42;;;26.20;61.70;;;;;;5095670;28;20234;-86
2022/09/08 13:29:37;;;;;;;2.88;2.20;;;26.40;58.70;;;;;;5095038;28;20195;-85
2022/09/08 13:32:26;;;;;;;2.42;2.22;;;25.80;58.10;;;;;;5091864;28;20218;-86
2022/09/08 13:34:54;;;;;;;2.92;2.42;;;25.60;57.70;;;;;;5100029;28;20186;-86
2022/09/08 13:37:47;;;;;;;3.00;2.55;;;25.30;56.30;;;;;;5095376;28;20440;-86
2022/09/08 13:40:46;;;;;;;2.95;2.75;;;25.40;58.20;;;;;;5095982;28;20206;-87
2022/09/08 13:43:30;;;;;;;3.30;2.45;;;26.10;54.70;;;;;;5097435;28;20539;-85